Time;durP1;ratioP1;P1;durP2;ratioP2;P2;SDS_P1;SDS_P2;PMS_P1;PMS_P2;Temp;Humidity;BMP_temperature;BMP_pressure;BME280_temperature;BME280_humidity;BME280_pressure;Samples;Min_cycle;Max_cycle;Signal;HPM_P1;HPM_P2
2023/09/19 00:01:08;;;;;;;3.53;1.57;;;16.80;49.80;;;;;;5108419;27;46589;-81
2023/09/19 00:03:37;;;;;;;4.43;2.03;;;16.80;49.70;;;;;;5108291;27;46551;-80
2023/09/19 00:06:04;;;;;;;7.03;2.03;;;16.80;49.60;;;;;;5107555;27;46773;-80
2023/09/19 00:08:30;;;;;;;3.40;1.97;;;16.80;49.50;;;;;;5107306;27;46904;-81
2023/09/19 00:10:58;;;;;;;4.70;2.03;;;16.80;49.40;;;;;;5105190;27;47307;-81
2023/09/19 00:13:24;;;;;;;4.43;1.70;;;16.80;49.30;;;;;;5109350;27;46651;-80
2023/09/19 00:15:50;;;;;;;6.37;1.90;;;16.80;49.40;;;;;;5091277;27;45980;-81
2023/09/19 00:18:18;;;;;;;5.83;2.23;;;16.70;49.60;;;;;;5089752;27;46181;-81
2023/09/19 00:20:47;;;;;;;6.20;1.87;;;16.70;49.80;;;;;;5111874;27;46669;-81
2023/09/19 00:23:13;;;;;;;4.10;1.67;;;16.60;49.90;;;;;;5092629;27;46481;-83
2023/09/19 00:25:40;;;;;;;4.07;1.80;;;16.50;50.00;;;;;;5089169;27;46375;-80
2023/09/19 00:28:07;;;;;;;4.77;2.07;;;16.50;49.90;;;;;;5105053;27;46604;-80
2023/09/19 00:30:36;;;;;;;5.43;2.03;;;16.50;49.80;;;;;;5110047;27;46799;-80
2023/09/19 00:33:05;;;;;;;4.07;2.17;;;16.40;49.90;;;;;;5109023;27;46679;-80
2023/09/19 00:35:31;;;;;;;7.20;1.90;;;16.50;50.00;;;;;;5110179;27;46431;-81
2023/09/19 00:37:56;;;;;;;5.50;2.00;;;16.40;49.90;;;;;;5107441;27;47024;-82
2023/09/19 00:40:22;;;;;;;11.27;2.20;;;16.40;50.00;;;;;;5110016;27;46607;-80
2023/09/19 00:42:49;;;;;;;4.10;1.97;;;16.50;49.90;;;;;;5086902;27;46813;-80
2023/09/19 00:45:17;;;;;;;7.53;2.07;;;16.50;49.80;;;;;;5109405;27;45879;-80
2023/09/19 00:47:46;;;;;;;4.73;1.93;;;16.50;49.60;;;;;;5111841;27;46789;-82
2023/09/19 00:50:14;;;;;;;6.07;2.23;;;16.70;49.50;;;;;;5108584;27;47169;-80
2023/09/19 00:52:42;;;;;;;6.33;2.03;;;16.70;49.10;;;;;;5109060;27;46511;-80
2023/09/19 00:55:09;;;;;;;4.90;2.10;;;16.80;48.90;;;;;;5106496;27;45903;-79
2023/09/19 00:57:38;;;;;;;5.93;2.23;;;16.80;48.80;;;;;;5106337;27;46450;-81
2023/09/19 01:00:06;;;;;;;6.37;2.20;;;16.90;48.60;;;;;;5092274;27;49883;-81
2023/09/19 01:02:32;;;;;;;3.90;2.03;;;16.90;48.70;;;;;;5114042;27;46516;-82
2023/09/19 01:04:59;;;;;;;4.47;1.73;;;16.90;48.80;;;;;;5090047;27;46614;-81
2023/09/19 01:07:25;;;;;;;4.93;2.07;;;16.90;48.80;;;;;;5089206;27;46188;-81
2023/09/19 01:09:52;;;;;;;5.27;2.00;;;16.80;48.80;;;;;;5108551;27;47325;-80
2023/09/19 01:12:25;;;;;;;6.17;2.10;;;16.80;49.00;;;;;;5092508;27;47112;-82
2023/09/19 01:14:59;;;;;;;5.73;1.70;;;16.80;49.40;;;;;;5108642;27;46414;-81
2023/09/19 01:17:33;;;;;;;5.83;2.40;;;16.70;50.90;;;;;;5089853;27;46574;-83
2023/09/19 01:20:33;;;;;;;6.30;1.83;;;16.70;49.70;;;;;;5105881;27;46440;-83
2023/09/19 01:23:34;;;;;;;3.50;1.70;;;16.70;49.80;;;;;;5090542;27;46455;-83
2023/09/19 01:26:25;;;;;;;3.37;1.67;;;16.70;49.80;;;;;;5096013;27;46459;-82
2023/09/19 01:29:01;;;;;;;3.80;1.50;;;16.70;49.80;;;;;;5109498;27;46526;-84
2023/09/19 01:31:33;;;;;;;2.90;1.50;;;16.70;49.80;;;;;;5092665;27;48549;-83
2023/09/19 01:34:07;;;;;;;3.53;1.67;;;16.80;49.90;;;;;;5112322;27;46715;-82
2023/09/19 01:36:35;;;;;;;3.30;1.50;;;16.70;50.10;;;;;;5091566;27;46472;-83
2023/09/19 01:39:10;;;;;;;3.80;1.63;;;16.70;50.30;;;;;;5092031;27;45961;-82
2023/09/19 01:41:55;;;;;;;4.47;2.07;;;16.60;50.10;;;;;;5095949;27;47084;-82
2023/09/19 01:44:41;;;;;;;6.40;1.53;;;16.60;50.20;;;;;;5108803;27;46553;-82
2023/09/19 01:47:19;;;;;;;4.20;1.70;;;16.60;50.20;;;;;;5110205;27;46493;-79
2023/09/19 01:50:03;;;;;;;4.90;2.00;;;16.60;50.20;;;;;;5108095;27;46542;-82
2023/09/19 01:52:33;;;;;;;3.23;1.60;;;16.60;50.40;;;;;;5111353;27;48536;-83
2023/09/19 01:55:07;;;;;;;3.80;1.60;;;16.60;50.40;;;;;;5090978;27;46766;-83
2023/09/19 01:57:43;;;;;;;4.03;1.80;;;16.60;50.50;;;;;;5108886;27;46427;-80
2023/09/19 02:00:12;;;;;;;5.03;1.90;;;16.50;50.50;;;;;;5115044;27;46543;-82
2023/09/19 02:02:41;;;;;;;2.83;1.43;;;16.50;50.20;;;;;;5109517;27;46578;-82
2023/09/19 02:05:07;;;;;;;3.30;1.63;;;16.50;50.90;;;;;;5112358;27;46963;-81
2023/09/19 02:07:33;;;;;;;6.53;1.60;;;16.40;50.90;;;;;;5108527;27;46883;-82
2023/09/19 02:10:05;;;;;;;5.00;2.20;;;16.40;51.00;;;;;;5108821;27;46992;-81
2023/09/19 02:12:35;;;;;;;3.30;1.70;;;16.50;51.10;;;;;;5091641;27;48437;-82
2023/09/19 02:15:01;;;;;;;3.73;1.50;;;16.30;51.10;;;;;;5108331;27;46572;-83
2023/09/19 02:17:26;;;;;;;2.97;1.70;;;16.30;51.30;;;;;;5108125;27;47091;-83
2023/09/19 02:19:53;;;;;;;4.27;1.70;;;16.30;51.40;;;;;;5108069;27;46522;-82
2023/09/19 02:22:19;;;;;;;3.60;1.50;;;16.30;51.60;;;;;;5107552;27;47249;-84
2023/09/19 02:24:45;;;;;;;3.23;1.70;;;16.30;51.50;;;;;;5107010;27;45795;-83
2023/09/19 02:27:14;;;;;;;4.90;2.10;;;16.30;51.50;;;;;;5094522;27;46411;-78
2023/09/19 02:29:40;;;;;;;3.87;1.80;;;16.20;51.60;;;;;;5100624;27;46584;-83
2023/09/19 02:32:06;;;;;;;5.10;2.13;;;16.20;51.60;;;;;;5088288;27;48930;-83
2023/09/19 02:34:32;;;;;;;2.90;1.83;;;16.20;51.50;;;;;;5092327;27;46613;-82
2023/09/19 02:36:58;;;;;;;3.73;1.90;;;16.20;51.50;;;;;;5109131;27;46672;-83
2023/09/19 02:39:23;;;;;;;4.70;1.73;;;16.30;51.70;;;;;;5106348;27;46481;-84
2023/09/19 02:41:49;;;;;;;3.23;1.67;;;16.30;51.50;;;;;;5091690;27;48597;-83
2023/09/19 02:44:15;;;;;;;3.67;1.80;;;16.40;51.40;;;;;;5089904;27;46702;-83
2023/09/19 02:46:42;;;;;;;3.20;1.80;;;16.40;51.30;;;;;;5109583;27;46478;-83
2023/09/19 02:49:07;;;;;;;5.77;1.93;;;16.40;51.30;;;;;;5107649;27;46418;-83
2023/09/19 02:51:34;;;;;;;4.70;1.60;;;16.50;51.10;;;;;;5106005;27;46789;-81
2023/09/19 02:54:00;;;;;;;3.60;1.90;;;16.50;51.10;;;;;;5107690;27;46453;-82
2023/09/19 02:56:25;;;;;;;3.77;1.63;;;16.50;51.10;;;;;;5106052;27;46430;-85
2023/09/19 02:58:51;;;;;;;5.13;1.80;;;16.50;52.20;;;;;;5109968;27;46758;-86
2023/09/19 03:01:18;;;;;;;5.93;2.00;;;16.60;51.00;;;;;;5108359;27;46442;-84
2023/09/19 03:03:44;;;;;;;8.40;2.00;;;16.60;50.90;;;;;;5108789;27;46821;-82
2023/09/19 03:06:10;;;;;;;3.60;1.90;;;16.70;51.00;;;;;;5095658;27;46487;-85
2023/09/19 03:08:38;;;;;;;4.20;1.80;;;16.70;50.80;;;;;;5113125;27;46426;-84
2023/09/19 03:11:05;;;;;;;7.03;2.23;;;16.70;50.80;;;;;;5114858;27;47200;-83
2023/09/19 03:13:32;;;;;;;3.27;1.70;;;16.70;50.80;;;;;;5088472;27;47196;-81
2023/09/19 03:15:58;;;;;;;4.87;2.10;;;16.70;50.80;;;;;;5107934;27;45930;-84
2023/09/19 03:18:26;;;;;;;6.73;2.03;;;16.70;50.90;;;;;;5091609;27;46640;-83
2023/09/19 03:20:56;;;;;;;8.80;2.10;;;16.70;50.90;;;;;;5105692;27;46512;-82
2023/09/19 03:23:22;;;;;;;10.50;2.27;;;16.70;51.00;;;;;;5108287;27;46496;-84
2023/09/19 03:25:48;;;;;;;4.93;2.20;;;16.60;52.30;;;;;;5110764;27;46407;-82
2023/09/19 03:28:15;;;;;;;4.47;2.00;;;16.60;51.40;;;;;;5106196;27;46358;-82
2023/09/19 03:30:41;;;;;;;4.50;1.73;;;16.50;51.50;;;;;;5092028;27;46952;-82
2023/09/19 03:33:08;;;;;;;7.23;2.33;;;16.50;51.40;;;;;;5108282;27;46272;-82
2023/09/19 03:35:34;;;;;;;5.30;2.10;;;16.50;51.40;;;;;;5106236;27;46575;-82
2023/09/19 03:38:00;;;;;;;2.90;1.40;;;16.60;51.10;;;;;;5107121;27;46825;-83
2023/09/19 03:40:25;;;;;;;4.27;2.00;;;16.70;51.10;;;;;;5086440;27;49690;-83
2023/09/19 03:42:51;;;;;;;3.60;1.77;;;16.70;50.60;;;;;;5088608;27;46509;-82
2023/09/19 03:45:18;;;;;;;7.03;1.80;;;16.80;50.40;;;;;;5107966;27;46827;-82
2023/09/19 03:47:44;;;;;;;6.00;1.70;;;16.80;50.10;;;;;;5108313;27;46588;-82
2023/09/19 03:50:15;;;;;;;3.30;1.87;;;16.90;50.10;;;;;;5106266;27;46896;-83
2023/09/19 03:52:40;;;;;;;3.50;1.57;;;17.00;50.10;;;;;;5105656;27;45920;-83
2023/09/19 03:55:06;;;;;;;4.47;1.87;;;16.90;50.10;;;;;;5107391;27;46511;-82
2023/09/19 03:57:32;;;;;;;6.00;1.93;;;16.90;50.00;;;;;;5108115;27;46404;-82
2023/09/19 03:59:58;;;;;;;6.73;2.00;;;16.90;49.80;;;;;;5107022;27;47405;-83
2023/09/19 04:02:24;;;;;;;3.53;1.77;;;17.00;49.80;;;;;;5106201;27;46269;-83
2023/09/19 04:04:50;;;;;;;3.43;1.57;;;17.00;49.60;;;;;;5088826;27;46372;-82
2023/09/19 04:07:16;;;;;;;3.80;1.73;;;17.00;49.50;;;;;;5107096;27;46715;-83
2023/09/19 04:09:42;;;;;;;5.87;2.00;;;17.00;49.30;;;;;;5092416;27;48488;-82
2023/09/19 04:12:11;;;;;;;3.77;1.53;;;17.00;49.30;;;;;;5090611;27;46660;-81
2023/09/19 04:14:36;;;;;;;4.43;1.57;;;17.00;49.30;;;;;;5106539;27;46532;-82
2023/09/19 04:17:03;;;;;;;3.73;1.70;;;17.00;49.30;;;;;;5106916;27;46569;-83
2023/09/19 04:19:28;;;;;;;3.77;1.90;;;16.90;49.40;;;;;;5088155;27;48210;-83
2023/09/19 04:21:54;;;;;;;5.17;2.37;;;16.90;49.50;;;;;;5093866;27;46442;-84
2023/09/19 04:24:20;;;;;;;4.20;1.70;;;16.90;49.70;;;;;;5110084;27;46395;-76
2023/09/19 04:26:46;;;;;;;8.60;2.00;;;16.80;49.60;;;;;;5099101;27;46506;-82
2023/09/19 04:29:13;;;;;;;3.80;1.77;;;16.80;49.80;;;;;;5108046;27;46957;-79
2023/09/19 04:31:40;;;;;;;3.53;1.67;;;16.80;49.80;;;;;;5117310;27;46495;-82
2023/09/19 04:34:08;;;;;;;5.13;2.37;;;16.80;49.90;;;;;;5111045;27;46457;-84
2023/09/19 04:36:34;;;;;;;4.67;2.10;;;16.80;50.00;;;;;;5105286;27;46695;-82
2023/09/19 04:39:04;;;;;;;9.23;1.87;;;16.80;49.80;;;;;;5105482;27;46980;-84
2023/09/19 04:41:30;;;;;;;5.37;1.83;;;16.70;49.90;;;;;;5103970;27;46496;-81
2023/09/19 04:43:58;;;;;;;3.43;1.70;;;16.80;49.90;;;;;;5105985;27;46885;-84
2023/09/19 04:46:24;;;;;;;4.70;1.50;;;16.80;49.80;;;;;;5111825;27;46482;-82
2023/09/19 04:48:49;;;;;;;4.20;1.70;;;16.80;49.90;;;;;;5089526;27;47918;-85
2023/09/19 04:51:15;;;;;;;5.93;1.63;;;16.80;49.70;;;;;;5106146;27;46580;-84
2023/09/19 04:53:41;;;;;;;5.20;2.10;;;16.80;49.60;;;;;;5106735;27;46481;-84
2023/09/19 04:56:07;;;;;;;3.80;2.00;;;16.80;49.60;;;;;;5106696;27;46931;-83
2023/09/19 04:58:33;;;;;;;4.03;1.80;;;16.70;49.50;;;;;;5109526;27;46983;-84
2023/09/19 05:00:59;;;;;;;7.63;1.73;;;16.70;49.70;;;;;;5092093;27;46408;-82
2023/09/19 05:03:25;;;;;;;5.60;2.00;;;16.70;49.70;;;;;;5106783;27;46615;-81
2023/09/19 05:05:50;;;;;;;5.40;1.97;;;16.70;49.70;;;;;;5091791;27;45926;-83
2023/09/19 05:08:16;;;;;;;6.80;4.30;;;16.70;49.70;;;;;;5103239;27;46590;-83
2023/09/19 05:10:42;;;;;;;6.47;3.00;;;16.70;49.70;;;;;;5106760;27;46438;-81
2023/09/19 05:13:07;;;;;;;4.17;3.10;;;16.70;49.70;;;;;;5106273;27;46650;-81
2023/09/19 05:15:33;;;;;;;4.10;1.73;;;16.70;49.50;;;;;;5106463;27;47045;-82
2023/09/19 05:17:59;;;;;;;5.00;2.10;;;16.80;49.50;;;;;;5107372;27;46458;-82
2023/09/19 05:20:33;;;;;;;3.77;1.93;;;16.80;49.50;;;;;;5105753;27;46400;-82
2023/09/19 05:23:03;;;;;;;5.40;1.70;;;16.80;49.30;;;;;;5107522;27;46601;-84
2023/09/19 05:25:32;;;;;;;4.37;2.00;;;16.90;49.20;;;;;;5106266;27;46687;-82
2023/09/19 05:28:03;;;;;;;4.30;1.70;;;16.90;48.90;;;;;;5108592;27;47380;-81
2023/09/19 05:30:29;;;;;;;3.97;1.80;;;17.00;48.70;;;;;;5107143;27;46533;-84
2023/09/19 05:32:55;;;;;;;4.37;1.90;;;17.00;48.50;;;;;;5108340;27;46457;-83
2023/09/19 05:35:21;;;;;;;3.17;1.50;;;17.00;48.50;;;;;;5104756;27;46577;-82
2023/09/19 05:37:50;;;;;;;3.70;1.90;;;17.00;48.50;;;;;;5104829;27;47075;-80
2023/09/19 05:40:19;;;;;;;4.40;2.10;;;17.00;48.60;;;;;;5101623;27;47491;-83
2023/09/19 05:42:46;;;;;;;3.10;1.60;;;17.00;48.40;;;;;;5105185;27;46468;-82
2023/09/19 05:45:12;;;;;;;2.77;1.30;;;17.10;48.40;;;;;;5103795;27;46687;-81
2023/09/19 05:47:40;;;;;;;4.23;1.90;;;17.20;48.40;;;;;;5103625;27;46602;-82
2023/09/19 05:50:07;;;;;;;4.60;1.67;;;17.10;48.20;;;;;;5101482;27;45880;-86
2023/09/19 05:52:33;;;;;;;3.13;1.60;;;17.10;48.20;;;;;;5100951;27;46804;-87
2023/09/19 05:54:59;;;;;;;3.70;1.70;;;17.10;48.20;;;;;;5104433;27;46918;-87
2023/09/19 05:57:25;;;;;;;2.50;1.40;;;17.20;48.20;;;;;;5104207;27;47239;-81
2023/09/19 05:59:51;;;;;;;4.97;1.77;;;17.30;48.00;;;;;;5105613;27;45922;-83
2023/09/19 06:02:19;;;;;;;3.97;1.80;;;17.50;47.40;;;;;;5103281;27;46180;-84
2023/09/19 06:04:45;;;;;;;3.30;1.57;;;17.60;47.00;;;;;;5083654;27;46487;-82
2023/09/19 06:07:11;;;;;;;3.77;1.60;;;17.70;46.50;;;;;;5087548;27;48067;-82
2023/09/19 06:09:36;;;;;;;5.23;1.73;;;17.80;46.10;;;;;;5101000;27;46767;-82
2023/09/19 06:12:03;;;;;;;9.73;2.30;;;17.90;45.80;;;;;;5091664;27;46784;-81
2023/09/19 06:14:29;;;;;;;2.97;1.20;;;17.90;45.80;;;;;;5107805;27;46541;-84
2023/09/19 06:16:54;;;;;;;3.10;1.67;;;17.90;45.70;;;;;;5105065;27;46578;-80
2023/09/19 06:19:22;;;;;;;4.00;1.97;;;17.90;45.70;;;;;;5105833;27;46459;-81
2023/09/19 06:21:48;;;;;;;3.80;1.53;;;18.00;45.80;;;;;;5103898;27;46509;-80
2023/09/19 06:24:14;;;;;;;6.67;1.67;;;18.00;45.80;;;;;;5107200;27;46793;-79
2023/09/19 06:26:40;;;;;;;8.10;1.90;;;18.00;45.80;;;;;;5108649;27;46754;-80
2023/09/19 06:29:09;;;;;;;5.90;1.73;;;18.00;45.80;;;;;;5092092;27;46237;-83
2023/09/19 06:31:35;;;;;;;4.73;1.50;;;18.00;45.90;;;;;;5090352;27;46287;-84
2023/09/19 06:34:01;;;;;;;5.03;1.47;;;18.00;45.80;;;;;;5110999;27;46462;-86
2023/09/19 06:36:26;;;;;;;3.60;1.47;;;18.10;45.40;;;;;;5109223;27;47220;-82
2023/09/19 06:38:52;;;;;;;3.30;1.47;;;18.20;44.90;;;;;;5095086;27;45957;-83
2023/09/19 06:41:18;;;;;;;3.20;1.70;;;18.30;44.80;;;;;;5107350;27;47452;-81
2023/09/19 06:43:44;;;;;;;8.23;2.00;;;18.40;44.30;;;;;;5107220;27;46565;-82
2023/09/19 06:46:09;;;;;;;3.50;1.90;;;18.50;44.30;;;;;;5108407;27;46199;-81
2023/09/19 06:48:35;;;;;;;4.27;1.60;;;18.60;43.80;;;;;;5118768;27;46412;-80
2023/09/19 06:51:04;;;;;;;4.00;1.70;;;18.70;43.50;;;;;;5110202;27;46397;-81
2023/09/19 06:53:35;;;;;;;4.43;1.60;;;18.80;43.10;;;;;;5106707;27;45941;-78
2023/09/19 06:56:01;;;;;;;4.13;1.50;;;18.90;43.10;;;;;;5098967;27;48039;-81
2023/09/19 06:58:27;;;;;;;8.30;1.60;;;19.00;42.80;;;;;;5091080;27;46586;-80
2023/09/19 07:00:53;;;;;;;4.03;1.60;;;19.10;42.50;;;;;;5104794;27;46490;-82
2023/09/19 07:03:21;;;;;;;4.67;1.43;;;19.30;42.20;;;;;;5109712;27;46492;-79
2023/09/19 07:05:48;;;;;;;5.40;1.57;;;19.40;41.60;;;;;;5105353;27;46426;-79
2023/09/19 07:08:15;;;;;;;3.67;1.50;;;19.50;41.30;;;;;;5111678;27;46436;-79
2023/09/19 07:10:48;;;;;;;4.30;1.60;;;19.60;40.70;;;;;;5108126;27;46429;-83
2023/09/19 07:13:17;;;;;;;7.00;1.83;;;19.60;40.60;;;;;;5113298;27;46468;-84
2023/09/19 07:15:46;;;;;;;6.53;1.80;;;19.60;40.50;;;;;;5109212;27;46386;-81
2023/09/19 07:18:14;;;;;;;6.93;1.97;;;19.50;40.30;;;;;;5109294;27;46453;-83
2023/09/19 07:20:45;;;;;;;4.20;1.60;;;19.40;40.70;;;;;;5100046;27;45863;-82
2023/09/19 07:23:13;;;;;;;3.37;1.50;;;19.20;41.10;;;;;;5112526;27;46773;-82
2023/09/19 07:25:39;;;;;;;3.83;1.50;;;19.00;41.40;;;;;;5091522;27;48371;-82
2023/09/19 07:28:05;;;;;;;3.17;1.20;;;19.10;41.80;;;;;;5106260;27;46540;-83
2023/09/19 07:30:31;;;;;;;4.83;1.40;;;19.10;41.60;;;;;;5107478;27;46812;-83
2023/09/19 07:32:56;;;;;;;5.90;2.00;;;19.00;41.60;;;;;;5106953;27;46623;-82
2023/09/19 07:35:22;;;;;;;4.40;1.40;;;18.90;42.20;;;;;;5104273;27;46709;-82
2023/09/19 07:37:49;;;;;;;3.10;1.43;;;18.70;43.10;;;;;;5089915;27;46702;-83
2023/09/19 07:40:19;;;;;;;3.20;1.70;;;18.80;43.70;;;;;;5086947;27;46538;-82
2023/09/19 07:42:46;;;;;;;4.10;1.37;;;19.00;43.50;;;;;;5107349;27;46505;-81
2023/09/19 07:45:14;;;;;;;7.40;1.50;;;19.20;43.20;;;;;;5105454;27;47235;-80
2023/09/19 07:47:44;;;;;;;4.30;1.97;;;19.40;42.70;;;;;;5106489;27;47024;-89
2023/09/19 07:50:11;;;;;;;6.67;1.73;;;19.60;42.20;;;;;;5088257;27;46531;-81
2023/09/19 07:52:39;;;;;;;4.60;1.80;;;19.70;41.70;;;;;;5101351;27;46473;-81
2023/09/19 07:55:08;;;;;;;6.43;1.90;;;19.90;41.60;;;;;;5104084;27;46610;-82
2023/09/19 07:57:35;;;;;;;4.40;1.50;;;20.00;41.10;;;;;;5103469;27;46501;-78
2023/09/19 08:00:00;;;;;;;5.73;1.60;;;20.00;40.60;;;;;;5104462;27;46459;-82
2023/09/19 08:02:28;;;;;;;5.30;1.53;;;20.20;40.30;;;;;;5104529;27;46706;-81
2023/09/19 08:04:53;;;;;;;3.53;1.40;;;20.30;39.70;;;;;;5105487;27;46753;-81
2023/09/19 08:07:19;;;;;;;7.57;2.23;;;20.40;38.90;;;;;;5103585;27;46377;-79
2023/09/19 08:09:48;;;;;;;3.27;1.30;;;20.30;38.10;;;;;;5105517;27;46493;-81
2023/09/19 08:12:14;;;;;;;3.37;1.47;;;20.30;37.70;;;;;;5105348;27;46657;-80
2023/09/19 08:14:41;;;;;;;3.90;1.60;;;20.60;37.50;;;;;;5087824;27;48336;-80
2023/09/19 08:17:08;;;;;;;3.87;1.40;;;20.90;36.60;;;;;;5103264;27;46729;-81
2023/09/19 08:19:34;;;;;;;5.07;1.63;;;21.10;35.00;;;;;;5104919;27;46663;-82
2023/09/19 08:21:59;;;;;;;6.90;1.50;;;21.30;34.90;;;;;;5086262;27;46439;-82
2023/09/19 08:24:29;;;;;;;3.93;1.40;;;21.40;32.80;;;;;;5109542;27;45985;-82
2023/09/19 08:26:55;;;;;;;8.00;1.60;;;21.40;32.70;;;;;;5089476;27;46791;-82
2023/09/19 08:29:27;;;;;;;4.20;1.20;;;21.50;32.30;;;;;;5107031;27;46526;-79
2023/09/19 08:31:53;;;;;;;3.30;1.50;;;21.50;31.10;;;;;;5087546;27;46430;-80
2023/09/19 08:34:19;;;;;;;3.50;1.40;;;21.30;31.60;;;;;;5111376;27;46945;-83
2023/09/19 08:36:45;;;;;;;5.23;1.60;;;21.30;30.80;;;;;;5111945;27;46469;-78
2023/09/19 08:39:11;;;;;;;4.80;1.40;;;21.00;29.90;;;;;;5105947;27;46527;-81
2023/09/19 08:41:37;;;;;;;5.80;1.83;;;20.70;29.80;;;;;;5107514;27;46709;-79
2023/09/19 08:44:03;;;;;;;3.30;1.60;;;20.60;30.70;;;;;;5105988;27;46450;-79
2023/09/19 08:46:31;;;;;;;7.60;1.80;;;20.50;30.60;;;;;;5107065;27;46433;-80
2023/09/19 08:49:04;;;;;;;7.30;1.60;;;20.60;30.50;;;;;;5107732;27;46579;-79
2023/09/19 08:51:46;;;;;;;7.03;1.73;;;21.00;29.90;;;;;;5093507;27;46353;-77
2023/09/19 08:54:22;;;;;;;3.37;1.57;;;21.20;28.80;;;;;;5104112;27;47152;-79
2023/09/19 08:56:47;;;;;;;5.27;1.80;;;21.60;28.70;;;;;;5104346;27;46577;-78
2023/09/19 08:59:15;;;;;;;3.90;1.50;;;21.60;27.00;;;;;;5104954;27;47734;-78
2023/09/19 09:01:42;;;;;;;4.07;1.50;;;21.50;26.60;;;;;;5107150;27;46607;-78
2023/09/19 09:04:12;;;;;;;3.37;1.23;;;21.30;25.60;;;;;;5104545;27;47602;-80
2023/09/19 09:06:40;;;;;;;3.03;1.40;;;21.20;25.30;;;;;;5105913;27;46541;-80
2023/09/19 09:09:06;;;;;;;4.57;1.50;;;21.60;25.50;;;;;;5106539;27;46612;-80
2023/09/19 09:11:33;;;;;;;2.90;1.30;;;21.90;25.00;;;;;;5108492;27;45988;-80
2023/09/19 09:13:59;;;;;;;7.60;1.67;;;21.90;23.80;;;;;;5106231;27;47488;-80
2023/09/19 09:16:25;;;;;;;3.23;1.30;;;22.00;23.90;;;;;;5105455;27;46871;-80
2023/09/19 09:18:54;;;;;;;6.37;1.47;;;22.00;23.90;;;;;;5104653;27;45895;-80
2023/09/19 09:21:21;;;;;;;8.37;1.90;;;21.80;23.20;;;;;;5105619;27;46545;-82
2023/09/19 09:23:48;;;;;;;5.80;1.40;;;21.70;22.80;;;;;;5103670;27;46685;-80
2023/09/19 09:26:14;;;;;;;6.37;1.20;;;21.60;23.60;;;;;;5107922;27;46487;-83
2023/09/19 09:28:48;;;;;;;3.20;1.50;;;21.40;23.50;;;;;;5107973;27;46402;-81
2023/09/19 09:31:24;;;;;;;2.70;1.40;;;21.40;23.40;;;;;;5098427;27;46664;-79
2023/09/19 09:33:55;;;;;;;3.93;1.60;;;21.40;23.40;;;;;;5091427;27;52639;-81
2023/09/19 09:36:34;;;;;;;3.80;1.40;;;21.60;23.60;;;;;;5102219;27;47013;-83
2023/09/19 09:39:15;;;;;;;3.23;1.60;;;21.80;23.90;;;;;;5101857;27;46798;-81
2023/09/19 09:41:40;;;;;;;3.23;1.30;;;22.10;22.90;;;;;;5085809;27;46430;-83
2023/09/19 09:44:17;;;;;;;5.13;1.43;;;22.40;22.10;;;;;;5084934;27;48118;-83
2023/09/19 09:49:33;;;;;;;4.33;1.53;;;22.30;21.50;;;;;;5106819;27;46781;-80
2023/09/19 09:51:59;;;;;;;5.73;1.70;;;22.30;21.10;;;;;;5087351;27;46341;-83
2023/09/19 09:54:41;;;;;;;4.77;1.27;;;21.90;21.30;;;;;;5107026;27;46474;-83
2023/09/19 09:57:16;;;;;;;3.00;1.20;;;21.90;22.10;;;;;;5105872;27;46507;-87
2023/09/19 09:59:53;;;;;;;4.20;1.50;;;21.90;22.20;;;;;;5110054;27;46556;-81
2023/09/19 10:02:32;;;;;;;6.57;1.20;;;21.90;21.90;;;;;;5091943;27;46760;-81
2023/09/19 10:05:09;;;;;;;3.57;1.30;;;21.80;21.80;;;;;;5106678;27;46624;-79
2023/09/19 10:07:40;;;;;;;3.97;1.30;;;22.00;21.80;;;;;;5108071;27;47704;-80
2023/09/19 10:10:28;;;;;;;6.30;2.10;;;21.90;22.20;;;;;;5090780;27;46485;-81
2023/09/19 10:12:56;;;;;;;2.30;1.10;;;22.00;22.50;;;;;;5107525;27;46434;-81
2023/09/19 10:15:26;;;;;;;3.20;1.70;;;22.20;21.80;;;;;;5112356;27;46586;-81
2023/09/19 10:17:56;;;;;;;3.97;1.50;;;22.40;22.00;;;;;;5111440;27;46489;-82
2023/09/19 10:20:24;;;;;;;6.17;1.67;;;22.80;21.50;;;;;;5112209;27;46941;-81
2023/09/19 10:22:57;;;;;;;5.43;1.40;;;22.80;20.50;;;;;;5115158;27;46472;-81
2023/09/19 10:25:30;;;;;;;2.93;1.20;;;22.90;20.60;;;;;;5109310;27;46440;-82
2023/09/19 10:28:02;;;;;;;3.77;1.50;;;23.00;19.70;;;;;;5108746;27;46553;-80
2023/09/19 10:30:30;;;;;;;3.40;1.37;;;23.00;19.40;;;;;;5108374;27;46754;-79
2023/09/19 10:33:05;;;;;;;3.33;1.30;;;23.20;19.10;;;;;;5108652;27;46404;-78
2023/09/19 10:35:32;;;;;;;4.30;1.50;;;23.50;18.70;;;;;;5107877;27;47910;-78
2023/09/19 10:38:01;;;;;;;3.00;1.40;;;23.50;18.00;;;;;;5091852;27;46508;-79
2023/09/19 10:40:32;;;;;;;2.50;1.20;;;23.20;18.60;;;;;;5110431;27;46678;-80
2023/09/19 10:43:05;;;;;;;8.00;1.50;;;23.00;18.60;;;;;;5104555;27;46642;-78
2023/09/19 10:45:32;;;;;;;5.53;1.20;;;22.80;19.20;;;;;;5110626;27;46682;-78
2023/09/19 10:47:58;;;;;;;4.03;1.57;;;22.60;19.60;;;;;;5106575;27;46497;-80
2023/09/19 10:50:25;;;;;;;3.50;1.30;;;22.40;20.00;;;;;;5107260;27;46093;-78
2023/09/19 10:52:58;;;;;;;4.57;1.47;;;22.20;20.20;;;;;;5103958;27;46662;-76
2023/09/19 10:55:27;;;;;;;2.97;1.40;;;22.10;20.40;;;;;;5107175;27;47429;-79
2023/09/19 10:57:53;;;;;;;3.70;1.60;;;22.10;20.20;;;;;;5102198;27;46509;-77
2023/09/19 11:00:28;;;;;;;2.90;1.30;;;22.30;20.00;;;;;;5090186;27;46566;-78
2023/09/19 11:03:12;;;;;;;2.73;1.27;;;22.30;19.50;;;;;;5085229;27;46689;-80
2023/09/19 11:05:40;;;;;;;3.00;1.50;;;22.20;19.60;;;;;;5104784;27;47466;-78
2023/09/19 11:08:07;;;;;;;4.33;1.40;;;21.80;19.70;;;;;;5106226;27;46700;-78
2023/09/19 11:10:47;;;;;;;4.20;1.47;;;21.80;19.90;;;;;;5105758;27;46442;-79
2023/09/19 11:13:26;;;;;;;4.43;1.50;;;22.20;19.70;;;;;;5098049;27;47596;-79
2023/09/19 11:15:58;;;;;;;3.97;1.20;;;22.70;19.20;;;;;;5090460;27;48347;-79
2023/09/19 11:18:42;;;;;;;2.87;1.30;;;23.10;18.70;;;;;;5087791;27;46790;-78
2023/09/19 11:21:30;;;;;;;4.20;1.47;;;23.30;18.40;;;;;;5107514;27;45899;-79
2023/09/19 11:24:30;;;;;;;2.57;1.17;;;23.40;18.20;;;;;;5088178;27;46340;-77
2023/09/19 11:27:13;;;;;;;3.70;1.27;;;23.40;18.20;;;;;;5079039;27;47090;-77
2023/09/19 11:29:39;;;;;;;4.17;1.47;;;23.40;17.70;;;;;;5106989;27;46795;-78
2023/09/19 11:32:05;;;;;;;4.10;1.20;;;23.60;17.40;;;;;;5092016;27;46479;-78
2023/09/19 11:34:45;;;;;;;5.77;1.53;;;24.00;17.10;;;;;;5106374;27;46511;-78
2023/09/19 11:37:14;;;;;;;5.43;1.33;;;24.00;15.00;;;;;;5105115;27;46489;-77
2023/09/19 11:40:00;;;;;;;4.40;1.40;;;23.60;14.20;;;;;;5095742;27;46533;-78
2023/09/19 11:42:45;;;;;;;5.13;1.40;;;23.10;13.60;;;;;;5104980;27;45902;-78
2023/09/19 11:45:57;;;;;;;8.43;1.83;;;22.80;15.30;;;;;;5105112;27;46810;-78
2023/09/19 11:48:25;;;;;;;2.70;1.10;;;22.50;15.80;;;;;;5032601;28;46480;-78
2023/09/19 11:50:52;;;;;;;5.90;1.40;;;22.20;16.50;;;;;;5037456;28;46446;-79
2023/09/19 11:53:19;;;;;;;3.50;1.43;;;22.00;17.50;;;;;;5070874;27;47022;-79
2023/09/19 11:55:46;;;;;;;4.10;1.40;;;22.00;17.90;;;;;;5107262;27;46455;-77
2023/09/19 11:58:19;;;;;;;3.97;1.30;;;22.00;18.80;;;;;;5101941;27;47201;-80
2023/09/19 12:00:46;;;;;;;3.20;1.77;;;21.80;19.40;;;;;;5104984;27;45853;-78
2023/09/19 12:03:14;;;;;;;5.63;1.40;;;21.70;20.20;;;;;;5109339;27;46485;-78
2023/09/19 12:05:39;;;;;;;3.90;1.60;;;21.80;20.40;;;;;;5109350;27;46832;-79
2023/09/19 12:08:08;;;;;;;4.60;1.40;;;21.70;20.50;;;;;;5104526;27;46560;-78
2023/09/19 12:10:45;;;;;;;3.00;1.20;;;21.80;20.70;;;;;;5104193;27;46759;-77
2023/09/19 12:13:15;;;;;;;3.63;1.53;;;21.90;20.80;;;;;;5103467;27;46483;-75
2023/09/19 12:15:45;;;;;;;3.60;1.30;;;22.00;20.70;;;;;;5089318;27;46754;-79
2023/09/19 12:18:25;;;;;;;5.53;1.47;;;22.20;20.60;;;;;;5103685;27;47114;-79
2023/09/19 12:20:51;;;;;;;3.40;1.30;;;22.40;20.40;;;;;;5104265;27;46965;-77
2023/09/19 12:23:18;;;;;;;3.80;1.60;;;22.60;19.80;;;;;;5104907;27;46508;-77
2023/09/19 12:25:47;;;;;;;4.63;1.67;;;22.60;19.70;;;;;;5103978;27;46528;-76
2023/09/19 12:28:16;;;;;;;5.43;1.70;;;22.70;19.50;;;;;;5088251;27;49162;-78
2023/09/19 12:30:42;;;;;;;8.40;1.30;;;22.80;19.10;;;;;;5104391;27;46507;-78
2023/09/19 12:33:25;;;;;;;2.50;1.23;;;22.90;17.40;;;;;;5105817;27;46820;-77
2023/09/19 12:35:52;;;;;;;3.33;1.17;;;22.80;17.60;;;;;;5088014;27;46993;-79
2023/09/19 12:38:28;;;;;;;3.27;1.43;;;23.00;17.50;;;;;;5102541;27;47225;-80
2023/09/19 12:40:56;;;;;;;4.43;1.60;;;23.20;16.90;;;;;;5106868;27;46488;-77
2023/09/19 12:43:23;;;;;;;4.63;1.80;;;23.50;16.40;;;;;;5106311;27;46465;-78
2023/09/19 12:45:49;;;;;;;2.83;1.50;;;23.60;15.50;;;;;;5108149;27;46563;-78
2023/09/19 12:48:34;;;;;;;3.50;1.67;;;23.80;15.50;;;;;;5106381;27;46540;-79
2023/09/19 12:51:05;;;;;;;4.00;1.43;;;23.70;15.60;;;;;;5103941;27;46953;-81
2023/09/19 12:53:33;;;;;;;4.47;1.30;;;23.40;15.50;;;;;;5106226;27;46406;-81
2023/09/19 12:56:00;;;;;;;5.03;1.30;;;23.30;15.20;;;;;;5105707;27;46996;-79
2023/09/19 12:58:26;;;;;;;4.40;1.53;;;23.20;15.30;;;;;;5086840;27;48498;-78